createdAt,value
2023-10-28T00:00:51.965Z,100.00
2023-10-28T00:03:19.928Z,100.00
2023-10-28T00:05:47.938Z,100.00
2023-10-28T00:08:15.650Z,99.82
2023-10-28T00:10:43.952Z,96.69
2023-10-28T00:13:13.067Z,100.00
2023-10-28T00:15:42.997Z,100.00
2023-10-28T00:18:11.020Z,100.00
2023-10-28T00:20:38.958Z,100.00
2023-10-28T00:23:08.152Z,100.00
2023-10-28T00:25:36.997Z,100.00
2023-10-28T00:28:05.141Z,100.00
2023-10-28T00:30:32.971Z,100.00
2023-10-28T00:33:03.242Z,100.00
2023-10-28T00:35:31.195Z,100.00
2023-10-28T00:37:59.399Z,100.00
2023-10-28T00:40:27.991Z,100.00
2023-10-28T00:42:57.302Z,97.87
2023-10-28T00:45:26.012Z,100.00
2023-10-28T00:47:55.122Z,100.00
2023-10-28T00:50:25.251Z,100.00
2023-10-28T00:52:56.108Z,100.00
2023-10-28T00:55:24.631Z,95.59
2023-10-28T00:57:53.486Z,100.00
2023-10-28T01:00:22.499Z,100.00
2023-10-28T01:02:50.601Z,100.00
2023-10-28T01:05:19.014Z,97.56
2023-10-28T01:07:50.460Z,100.00
2023-10-28T01:10:28.028Z,100.00
2023-10-28T01:12:55.723Z,95.23
2023-10-28T01:15:24.002Z,98.34
2023-10-28T01:17:52.233Z,100.00
2023-10-28T01:20:21.053Z,100.00
2023-10-28T01:22:50.242Z,99.72
2023-10-28T01:25:18.508Z,100.00
2023-10-28T01:27:46.341Z,100.00
2023-10-28T01:30:16.190Z,100.00
2023-10-28T01:32:44.247Z,100.00
2023-10-28T01:35:12.307Z,100.00
2023-10-28T01:37:40.084Z,100.00
2023-10-28T01:40:14.067Z,100.00
2023-10-28T01:42:42.841Z,100.00
2023-10-28T01:45:11.774Z,100.00
2023-10-28T01:47:41.066Z,100.00
2023-10-28T01:50:09.447Z,100.00
2023-10-28T01:52:38.237Z,100.00
2023-10-28T01:55:06.584Z,100.00
2023-10-28T01:57:45.802Z,100.00
2023-10-28T02:00:15.090Z,100.00
2023-10-28T02:02:43.704Z,100.00
2023-10-28T02:05:12.049Z,100.00
2023-10-28T02:07:40.249Z,100.00
2023-10-28T02:10:09.146Z,100.00
2023-10-28T02:12:37.143Z,100.00
2023-10-28T02:15:07.435Z,100.00
2023-10-28T02:17:37.231Z,100.00
2023-10-28T02:20:06.240Z,100.00
2023-10-28T02:22:34.119Z,100.00
2023-10-28T02:25:02.123Z,100.00
2023-10-28T02:27:29.847Z,100.00
2023-10-28T02:29:58.113Z,100.00
2023-10-28T02:32:27.345Z,100.00
2023-10-28T02:34:55.795Z,100.00
2023-10-28T02:37:24.145Z,100.00
2023-10-28T02:39:52.095Z,100.00
2023-10-28T02:42:20.271Z,100.00
2023-10-28T02:44:47.958Z,100.00
2023-10-28T02:47:17.204Z,100.00
2023-10-28T02:49:46.640Z,100.00
2023-10-28T02:52:15.125Z,100.00
2023-10-28T02:54:42.847Z,100.00
2023-10-28T02:57:10.920Z,100.00
2023-10-28T02:59:39.395Z,100.00
2023-10-28T03:02:07.470Z,100.00
2023-10-28T03:04:35.638Z,100.00
2023-10-28T03:07:05.110Z,100.00
2023-10-28T03:09:33.175Z,100.00
2023-10-28T03:12:00.886Z,100.00
2023-10-28T03:14:29.203Z,100.00
2023-10-28T03:16:57.445Z,100.00
2023-10-28T03:19:25.316Z,100.00
2023-10-28T03:21:53.073Z,100.00
2023-10-28T03:24:23.210Z,100.00
2023-10-28T03:26:50.891Z,100.00
2023-10-28T03:29:18.818Z,100.00
2023-10-28T03:31:46.866Z,100.00
2023-10-28T03:34:15.203Z,100.00
2023-10-28T03:36:42.923Z,100.00
2023-10-28T03:39:11.243Z,100.00
2023-10-28T03:41:41.303Z,100.00
2023-10-28T03:44:10.236Z,100.00
2023-10-28T03:46:37.993Z,100.00
2023-10-28T03:49:06.262Z,100.00
2023-10-28T03:51:35.369Z,100.00
2023-10-28T03:54:04.260Z,100.00
2023-10-28T03:56:31.950Z,100.00
2023-10-28T03:59:02.307Z,100.00
2023-10-28T04:01:30.075Z,100.00
2023-10-28T04:03:58.468Z,100.00
2023-10-28T04:06:26.317Z,100.00
2023-10-28T04:08:54.013Z,100.00
2023-10-28T04:11:21.714Z,100.00
2023-10-28T04:13:52.306Z,100.00
2023-10-28T04:16:22.318Z,100.00
2023-10-28T04:18:51.309Z,100.00
2023-10-28T04:21:19.333Z,100.00
2023-10-28T04:23:47.037Z,100.00
2023-10-28T04:26:15.495Z,100.00
2023-10-28T04:28:44.288Z,100.00
2023-10-28T04:31:12.097Z,100.00
2023-10-28T04:33:42.290Z,100.00
2023-10-28T04:36:11.319Z,100.00
2023-10-28T04:38:42.285Z,100.00
2023-10-28T04:41:10.732Z,100.00
2023-10-28T04:43:39.296Z,100.00
2023-10-28T04:46:09.928Z,100.00
2023-10-28T04:48:57.240Z,100.00
2023-10-28T04:51:26.304Z,100.00
2023-10-28T04:53:53.975Z,100.00
2023-10-28T04:56:22.316Z,100.00
2023-10-28T04:58:50.296Z,100.00
2023-10-28T05:01:18.198Z,100.00
2023-10-28T05:03:46.516Z,100.00
2023-10-28T05:06:16.108Z,100.00
2023-10-28T05:08:44.052Z,100.00
2023-10-28T05:11:17.687Z,100.00
2023-10-28T05:13:45.472Z,100.00
2023-10-28T05:16:13.334Z,100.00
2023-10-28T05:18:41.189Z,100.00
2023-10-28T05:21:10.341Z,100.00
2023-10-28T05:23:40.011Z,100.00
2023-10-28T05:26:08.397Z,100.00
2023-10-28T05:28:36.148Z,100.00
2023-10-28T05:31:05.380Z,100.00
2023-10-28T05:33:33.376Z,100.00
2023-10-28T05:36:01.372Z,100.00
2023-10-28T05:38:29.044Z,100.00
2023-10-28T05:40:59.396Z,100.00
2023-10-28T05:43:27.149Z,100.00
2023-10-28T05:45:55.389Z,100.00
2023-10-28T05:48:23.264Z,100.00
2023-10-28T05:50:50.931Z,100.00
2023-10-28T05:53:19.511Z,100.00
2023-10-28T05:55:47.551Z,100.00
2023-10-28T05:58:18.384Z,100.00
2023-10-28T06:00:46.070Z,100.00
2023-10-28T06:03:14.475Z,100.00
2023-10-28T06:05:42.216Z,100.00
2023-10-28T06:08:10.419Z,100.00
2023-10-28T06:10:38.154Z,100.00
2023-10-28T06:13:06.640Z,100.00
2023-10-28T06:15:35.733Z,100.00
2023-10-28T06:18:04.439Z,100.00
2023-10-28T06:20:48.492Z,100.00
2023-10-28T06:23:16.684Z,100.00
2023-10-28T06:25:44.642Z,100.00
2023-10-28T06:28:13.412Z,100.00
2023-10-28T06:30:48.680Z,100.00
2023-10-28T06:33:17.431Z,100.00
2023-10-28T06:35:46.052Z,100.00
2023-10-28T06:38:14.506Z,100.00
2023-10-28T06:40:43.425Z,100.00
2023-10-28T06:43:12.547Z,100.00
2023-10-28T06:45:40.227Z,100.00
2023-10-28T06:48:10.452Z,100.00
2023-10-28T06:50:38.485Z,100.00
2023-10-28T06:53:07.494Z,100.00
2023-10-28T06:55:36.274Z,100.00
2023-10-28T06:58:04.720Z,100.00
2023-10-28T07:00:33.032Z,100.00
2023-10-28T07:03:00.822Z,100.00
2023-10-28T07:05:30.485Z,100.00
2023-10-28T07:07:58.197Z,100.00
2023-10-28T07:10:27.477Z,100.00
2023-10-28T07:12:55.194Z,100.00
2023-10-28T07:15:22.991Z,100.00
2023-10-28T07:17:51.567Z,100.00
2023-10-28T07:20:20.591Z,100.00
2023-10-28T07:22:50.510Z,100.00
2023-10-28T07:25:29.175Z,100.00
2023-10-28T07:27:57.508Z,100.00
2023-10-28T07:30:25.616Z,100.00
2023-10-28T07:32:53.554Z,100.00
2023-10-28T07:35:21.488Z,100.00
2023-10-28T07:37:51.669Z,100.00
2023-10-28T07:40:19.874Z,100.00
2023-10-28T07:42:47.944Z,95.50
2023-10-28T07:45:16.049Z,100.00
2023-10-28T07:47:44.643Z,91.92
2023-10-28T07:50:12.423Z,93.83
2023-10-28T07:52:40.532Z,94.86
2023-10-28T07:55:10.516Z,100.00
2023-10-28T07:57:38.544Z,93.88
2023-10-28T08:00:12.103Z,100.00
2023-10-28T08:02:41.586Z,91.64
2023-10-28T08:05:11.208Z,94.73
2023-10-28T08:07:39.572Z,98.91
2023-10-28T08:10:09.958Z,98.68
2023-10-28T08:12:40.558Z,97.81
2023-10-28T08:15:09.842Z,96.64
2023-10-28T08:17:38.631Z,88.56
2023-10-28T08:20:07.340Z,94.35
2023-10-28T08:22:36.622Z,98.74
2023-10-28T08:25:05.617Z,97.72
2023-10-28T08:27:35.606Z,96.96
2023-10-28T08:30:03.985Z,97.33
2023-10-28T08:32:32.329Z,94.45
2023-10-28T08:35:01.312Z,100.00
2023-10-28T08:37:29.589Z,98.09
2023-10-28T08:39:57.298Z,100.00
2023-10-28T08:42:25.865Z,100.00
2023-10-28T08:44:55.337Z,94.67
2023-10-28T08:47:25.661Z,100.00
2023-10-28T08:49:53.639Z,100.00
2023-10-28T08:52:23.658Z,99.20
2023-10-28T08:54:52.724Z,96.57
2023-10-28T08:57:20.611Z,100.00
2023-10-28T08:59:48.550Z,94.10
2023-10-28T09:02:19.486Z,95.42
2023-10-28T09:04:47.641Z,96.94
2023-10-28T09:07:15.958Z,100.00
2023-10-28T09:09:46.363Z,100.00
2023-10-28T09:12:14.556Z,100.00
2023-10-28T09:14:42.338Z,92.07
2023-10-28T09:17:11.646Z,100.00
2023-10-28T09:19:41.009Z,90.42
2023-10-28T09:22:11.637Z,93.94
2023-10-28T09:24:39.416Z,98.14
2023-10-28T09:27:07.116Z,100.00
2023-10-28T09:29:35.656Z,100.00
2023-10-28T09:32:09.190Z,100.00
2023-10-28T09:34:43.665Z,100.00
2023-10-28T09:37:13.116Z,100.00
2023-10-28T09:39:42.683Z,100.00
2023-10-28T09:42:11.645Z,100.00
2023-10-28T09:44:40.838Z,100.00
2023-10-28T09:47:08.740Z,100.00
2023-10-28T09:49:44.886Z,100.00
2023-10-28T09:52:13.515Z,100.00
2023-10-28T09:54:44.711Z,100.00
2023-10-28T09:57:12.455Z,100.00
2023-10-28T09:59:42.709Z,100.00
2023-10-28T10:02:22.192Z,100.00
2023-10-28T10:04:56.732Z,100.00
2023-10-28T10:07:24.498Z,100.00
2023-10-28T10:09:52.761Z,100.00
2023-10-28T10:12:20.517Z,100.00
2023-10-28T10:14:49.161Z,100.00
2023-10-28T10:17:24.815Z,100.00
2023-10-28T10:19:54.617Z,100.00
2023-10-28T10:22:30.797Z,100.00
2023-10-28T10:24:58.975Z,100.00
2023-10-28T10:27:36.791Z,100.00
2023-10-28T10:30:07.660Z,100.00
2023-10-28T10:32:48.776Z,100.00
2023-10-28T10:35:31.355Z,100.00
2023-10-28T10:38:03.952Z,100.00
2023-10-28T10:40:33.707Z,100.00
2023-10-28T10:43:08.760Z,100.00
2023-10-28T10:45:37.177Z,100.00
2023-10-28T10:48:09.826Z,100.00
2023-10-28T10:50:39.471Z,100.00
2023-10-28T10:53:08.077Z,100.00
2023-10-28T10:55:36.261Z,100.00
2023-10-28T10:58:04.915Z,100.00
2023-10-28T11:00:34.790Z,100.00
2023-10-28T11:03:04.928Z,100.00
2023-10-28T11:05:33.330Z,100.00
2023-10-28T11:08:03.812Z,100.00
2023-10-28T11:10:31.604Z,100.00
2023-10-28T11:12:59.786Z,100.00
2023-10-28T11:15:27.510Z,100.00
2023-10-28T11:17:55.318Z,100.00
2023-10-28T11:20:23.878Z,100.00
2023-10-28T11:22:52.162Z,100.00
2023-10-28T11:25:21.819Z,100.00
2023-10-28T11:27:53.052Z,100.00
2023-10-28T11:30:22.821Z,99.10
2023-10-28T11:32:52.769Z,100.00
2023-10-28T11:35:20.887Z,100.00
2023-10-28T11:37:48.660Z,100.00
2023-10-28T11:40:18.810Z,100.00
2023-10-28T11:42:47.939Z,100.00
2023-10-28T11:45:16.845Z,97.81
2023-10-28T11:47:44.557Z,95.73
2023-10-28T11:50:12.995Z,100.00
2023-10-28T11:52:42.745Z,100.00
2023-10-28T11:55:11.893Z,100.00
2023-10-28T11:57:39.650Z,100.00
2023-10-28T12:00:12.844Z,100.00
2023-10-28T12:02:40.657Z,100.00
2023-10-28T12:05:09.913Z,100.00
2023-10-28T12:07:37.783Z,100.00
2023-10-28T12:10:07.972Z,100.00
2023-10-28T12:12:36.502Z,100.00
2023-10-28T12:15:04.817Z,100.00
2023-10-28T12:17:34.068Z,100.00
2023-10-28T12:20:02.923Z,100.00
2023-10-28T12:22:31.029Z,100.00
2023-10-28T12:24:58.894Z,99.40
2023-10-28T12:27:26.829Z,100.00
2023-10-28T12:29:54.505Z,100.00
2023-10-28T12:32:22.931Z,99.78
2023-10-28T12:34:52.037Z,100.00
2023-10-28T12:37:19.911Z,100.00
2023-10-28T12:39:48.092Z,97.94
2023-10-28T12:42:16.961Z,96.08
2023-10-28T12:44:44.913Z,100.00
2023-10-28T12:47:14.127Z,100.00
2023-10-28T12:49:41.866Z,100.00
2023-10-28T12:52:11.328Z,100.00
2023-10-28T12:54:39.941Z,98.16
2023-10-28T12:57:08.802Z,99.90
2023-10-28T12:59:37.114Z,88.98
2023-10-28T13:02:05.748Z,100.00
2023-10-28T13:04:33.945Z,100.00
2023-10-28T13:07:01.640Z,100.00
2023-10-28T13:09:30.973Z,94.30
2023-10-28T13:12:00.376Z,91.76
2023-10-28T13:14:29.995Z,98.91
2023-10-28T13:16:59.181Z,93.64
2023-10-28T13:19:26.914Z,91.89
2023-10-28T13:21:54.974Z,82.55
2023-10-28T13:24:22.685Z,87.86
2023-10-28T13:26:52.050Z,81.89
2023-10-28T13:29:20.031Z,89.66
2023-10-28T13:31:48.670Z,88.72
2023-10-28T13:34:17.005Z,93.35
2023-10-28T13:36:46.107Z,90.35
2023-10-28T13:39:14.312Z,90.68
2023-10-28T13:41:42.394Z,99.21
2023-10-28T13:44:11.991Z,89.82
2023-10-28T13:46:40.721Z,84.08
2023-10-28T13:49:09.022Z,88.09
2023-10-28T13:51:36.691Z,100.00
2023-10-28T13:54:04.412Z,100.00
2023-10-28T13:56:33.075Z,100.00
2023-10-28T13:59:04.946Z,100.00
2023-10-28T14:01:35.118Z,100.00
2023-10-28T14:04:04.994Z,100.00
2023-10-28T14:06:34.032Z,96.38
2023-10-28T14:09:01.852Z,90.83
2023-10-28T14:11:30.117Z,95.10
2023-10-28T14:13:58.730Z,97.11
2023-10-28T14:16:27.049Z,94.22
2023-10-28T14:18:56.477Z,90.72
2023-10-28T14:21:25.055Z,99.15
2023-10-28T14:23:53.356Z,100.00
2023-10-28T14:26:22.243Z,95.71
2023-10-28T14:28:50.323Z,100.00
2023-10-28T14:31:19.131Z,100.00
2023-10-28T14:33:47.329Z,100.00
2023-10-28T14:36:18.081Z,100.00
2023-10-28T14:38:45.792Z,100.00
2023-10-28T14:41:15.071Z,100.00
2023-10-28T14:43:42.815Z,100.00
2023-10-28T14:46:12.095Z,91.75
2023-10-28T14:48:39.913Z,97.46
2023-10-28T14:51:09.215Z,89.97
2023-10-28T14:53:39.180Z,93.24
2023-10-28T14:56:12.502Z,91.72
2023-10-28T14:58:41.136Z,80.48
2023-10-28T15:01:10.766Z,81.11
2023-10-28T15:03:39.484Z,82.70
2023-10-28T15:06:08.175Z,94.27
2023-10-28T15:08:36.255Z,100.00
2023-10-28T15:11:07.380Z,97.06
2023-10-28T15:13:36.128Z,100.00
2023-10-28T15:16:05.442Z,100.00
2023-10-28T15:18:34.124Z,100.00
2023-10-28T15:21:08.791Z,100.00
2023-10-28T15:23:36.512Z,100.00
2023-10-28T15:26:12.194Z,97.79
2023-10-28T15:28:41.845Z,100.00
2023-10-28T15:31:11.152Z,97.83
2023-10-28T15:33:38.950Z,97.24
2023-10-28T15:36:11.169Z,88.91
2023-10-28T15:38:39.345Z,100.00
2023-10-28T15:41:08.278Z,98.72
2023-10-28T15:43:39.565Z,95.09
2023-10-28T15:46:12.046Z,91.78
2023-10-28T15:48:41.162Z,92.23
2023-10-28T15:51:09.464Z,96.50
2023-10-28T15:53:38.236Z,94.18
2023-10-28T15:56:06.852Z,96.48
2023-10-28T15:58:34.594Z,100.00
2023-10-28T16:01:04.178Z,93.04
2023-10-28T16:03:32.155Z,98.17
2023-10-28T16:06:03.181Z,95.08
2023-10-28T16:08:31.395Z,100.00
2023-10-28T16:11:00.182Z,99.04
2023-10-28T16:13:27.987Z,93.63
2023-10-28T16:15:56.259Z,84.63
2023-10-28T16:18:25.623Z,93.61
2023-10-28T16:20:54.409Z,93.00
2023-10-28T16:23:22.264Z,93.83
2023-10-28T16:25:50.004Z,91.79
2023-10-28T16:28:20.216Z,90.85
2023-10-28T16:30:49.786Z,92.47
2023-10-28T16:33:18.375Z,96.92
2023-10-28T16:35:47.634Z,100.00
2023-10-28T16:38:27.396Z,100.00
2023-10-28T16:40:58.256Z,100.00
2023-10-28T16:43:27.369Z,98.08
2023-10-28T16:46:00.279Z,95.82
2023-10-28T16:48:28.068Z,93.62
2023-10-28T16:50:58.233Z,100.00
2023-10-28T16:53:26.981Z,100.00
2023-10-28T16:56:05.455Z,95.80
2023-10-28T16:58:33.448Z,90.55
2023-10-28T17:01:03.300Z,99.75
2023-10-28T17:03:31.590Z,97.08
2023-10-28T17:06:02.893Z,86.95
2023-10-28T17:08:30.690Z,89.04
2023-10-28T17:11:00.279Z,93.57
2023-10-28T17:13:28.140Z,100.00
2023-10-28T17:15:56.294Z,99.89
2023-10-28T17:18:24.022Z,92.50
2023-10-28T17:20:52.418Z,88.20
2023-10-28T17:23:21.810Z,90.76
2023-10-28T17:25:50.425Z,100.00
2023-10-28T17:28:18.413Z,89.27
2023-10-28T17:30:46.312Z,86.50
2023-10-28T17:33:14.178Z,91.32
2023-10-28T17:35:43.438Z,93.17
2023-10-28T17:38:11.740Z,91.29
2023-10-28T17:40:41.285Z,91.04
2023-10-28T17:43:10.857Z,98.24
2023-10-28T17:45:40.494Z,100.00
2023-10-28T17:48:09.353Z,96.17
2023-10-28T17:50:37.131Z,99.68
2023-10-28T17:53:05.320Z,100.00
2023-10-28T17:55:33.088Z,98.59
2023-10-28T17:58:02.344Z,92.62
2023-10-28T18:00:30.487Z,95.50
2023-10-28T18:03:00.453Z,96.30
2023-10-28T18:05:28.269Z,100.00
2023-10-28T18:07:56.470Z,100.00
2023-10-28T18:10:24.293Z,95.36
2023-10-28T18:12:54.419Z,91.67
2023-10-28T18:15:23.837Z,92.29
2023-10-28T18:17:52.422Z,100.00
2023-10-28T18:20:20.384Z,94.10
2023-10-28T18:22:48.431Z,100.00
2023-10-28T18:25:16.419Z,100.00
2023-10-28T18:27:44.210Z,100.00
2023-10-28T18:30:13.356Z,100.00
2023-10-28T18:32:42.946Z,96.32
2023-10-28T18:35:12.431Z,100.00
2023-10-28T18:37:40.426Z,100.00
2023-10-28T18:40:09.392Z,100.00
2023-10-28T18:42:37.480Z,100.00
2023-10-28T18:45:06.406Z,100.00
2023-10-28T18:47:36.963Z,100.00
2023-10-28T18:50:08.310Z,100.00
2023-10-28T18:52:36.498Z,100.00
2023-10-28T18:55:05.883Z,100.00
2023-10-28T18:57:34.405Z,95.44
2023-10-28T19:00:02.165Z,95.00
2023-10-28T19:02:30.466Z,100.00
2023-10-28T19:04:58.291Z,97.44
2023-10-28T19:07:27.423Z,98.50
2023-10-28T19:09:58.560Z,97.32
2023-10-28T19:12:26.541Z,98.29
2023-10-28T19:14:54.274Z,100.00
2023-10-28T19:17:22.295Z,100.00
2023-10-28T19:19:51.450Z,98.58
2023-10-28T19:22:21.405Z,100.00
2023-10-28T19:24:51.446Z,100.00
2023-10-28T19:27:19.096Z,94.25
2023-10-28T19:29:48.593Z,90.33
2023-10-28T19:32:16.453Z,93.11
2023-10-28T19:34:44.452Z,92.95
2023-10-28T19:37:12.171Z,87.67
2023-10-28T19:39:40.469Z,100.00
2023-10-28T19:42:09.677Z,100.00
2023-10-28T19:44:38.498Z,100.00
2023-10-28T19:47:06.305Z,99.50
2023-10-28T19:49:34.119Z,100.00
2023-10-28T19:52:02.481Z,100.00
2023-10-28T19:54:31.506Z,100.00
2023-10-28T19:56:59.195Z,94.07
2023-10-28T19:59:29.492Z,100.00
2023-10-28T20:01:57.209Z,98.80
2023-10-28T20:04:25.495Z,98.28
2023-10-28T20:06:54.129Z,96.49
2023-10-28T20:09:22.941Z,94.69
2023-10-28T20:11:52.495Z,97.53
2023-10-28T20:14:21.310Z,100.00
2023-10-28T20:16:50.611Z,97.96
2023-10-28T20:19:19.506Z,96.19
2023-10-28T20:21:47.370Z,100.00
2023-10-28T20:24:15.523Z,91.65
2023-10-28T20:26:44.501Z,97.27
2023-10-28T20:29:12.826Z,97.56
2023-10-28T20:31:41.528Z,100.00
2023-10-28T20:34:12.357Z,100.00
2023-10-28T20:36:40.673Z,95.12
2023-10-28T20:39:09.624Z,100.00
2023-10-28T20:41:37.564Z,100.00
2023-10-28T20:44:05.858Z,100.00
2023-10-28T20:46:34.538Z,100.00
2023-10-28T20:49:02.478Z,100.00
2023-10-28T20:51:31.596Z,100.00
2023-10-28T20:54:00.547Z,100.00
2023-10-28T20:56:28.562Z,100.00
2023-10-28T20:58:56.294Z,100.00
2023-10-28T21:01:24.615Z,100.00
2023-10-28T21:03:52.409Z,100.00
2023-10-28T21:06:20.720Z,100.00
2023-10-28T21:08:49.838Z,100.00
2023-10-28T21:11:18.582Z,100.00
2023-10-28T21:13:46.617Z,100.00
2023-10-28T21:16:15.596Z,100.00
2023-10-28T21:18:44.654Z,100.00
2023-10-28T21:21:12.723Z,100.00
2023-10-28T21:23:40.468Z,100.00
2023-10-28T21:26:10.592Z,100.00
2023-10-28T21:28:39.381Z,100.00
2023-10-28T21:31:07.838Z,100.00
2023-10-28T21:33:35.673Z,100.00
2023-10-28T21:36:04.653Z,100.00
2023-10-28T21:38:32.658Z,100.00
2023-10-28T21:41:01.200Z,100.00
2023-10-28T21:43:30.625Z,100.00
2023-10-28T21:46:00.014Z,100.00
2023-10-28T21:48:28.783Z,100.00
2023-10-28T21:50:56.710Z,100.00
2023-10-28T21:53:25.833Z,100.00
2023-10-28T21:55:53.600Z,100.00
2023-10-28T21:58:21.623Z,100.00
2023-10-28T22:00:51.564Z,100.00
2023-10-28T22:03:19.780Z,100.00
2023-10-28T22:05:47.901Z,100.00
2023-10-28T22:08:16.785Z,100.00
2023-10-28T22:10:44.658Z,100.00
2023-10-28T22:13:14.769Z,100.00
2023-10-28T22:15:43.316Z,100.00
2023-10-28T22:18:14.662Z,100.00
2023-10-28T22:20:43.844Z,100.00
2023-10-28T22:23:12.154Z,100.00
2023-10-28T22:25:41.691Z,100.00
2023-10-28T22:28:15.398Z,100.00
2023-10-28T22:30:44.670Z,100.00
2023-10-28T22:33:14.694Z,100.00
2023-10-28T22:35:43.697Z,100.00
2023-10-28T22:38:13.546Z,100.00
2023-10-28T22:40:42.680Z,100.00
2023-10-28T22:43:10.908Z,100.00
2023-10-28T22:45:39.726Z,100.00
2023-10-28T22:48:07.599Z,100.00
2023-10-28T22:50:39.208Z,100.00
2023-10-28T22:53:07.045Z,100.00
2023-10-28T22:55:35.710Z,100.00
2023-10-28T22:58:03.749Z,100.00
2023-10-28T23:00:34.745Z,100.00
2023-10-28T23:03:08.248Z,100.00
2023-10-28T23:05:37.824Z,100.00
2023-10-28T23:08:06.191Z,100.00
2023-10-28T23:10:34.721Z,100.00
2023-10-28T23:13:02.437Z,100.00
2023-10-28T23:15:32.004Z,100.00
2023-10-28T23:18:00.832Z,100.00
2023-10-28T23:20:28.746Z,100.00
2023-10-28T23:22:58.748Z,100.00
2023-10-28T23:25:26.456Z,100.00
2023-10-28T23:27:54.783Z,100.00
2023-10-28T23:30:24.651Z,100.00
2023-10-28T23:32:53.806Z,100.00
2023-10-28T23:35:21.945Z,100.00
2023-10-28T23:37:49.788Z,100.00
2023-10-28T23:40:19.403Z,100.00
2023-10-28T23:42:47.755Z,100.00
2023-10-28T23:45:15.702Z,100.00
2023-10-28T23:47:44.296Z,100.00
2023-10-28T23:50:12.793Z,100.00
2023-10-28T23:52:41.038Z,100.00
2023-10-28T23:55:09.299Z,100.00
2023-10-28T23:57:39.800Z,100.00
